createdAt,value
2023-01-23T00:15:50.148Z,100
2023-01-23T00:35:04.359Z,100
2023-01-23T00:54:21.663Z,100
2023-01-23T01:13:35.279Z,100
2023-01-23T01:32:49.842Z,100
2023-01-23T01:52:03.772Z,100
2023-01-23T02:11:30.408Z,100
2023-01-23T02:30:36.120Z,100
2023-01-23T02:49:49.285Z,100
2023-01-23T03:09:01.771Z,100
2023-01-23T03:28:16.113Z,100
2023-01-23T03:47:34.079Z,100
2023-01-23T04:06:50.061Z,100
2023-01-23T04:26:05.240Z,100
2023-01-23T04:45:20.002Z,100
2023-01-23T05:04:33.873Z,100
2023-01-23T05:23:45.146Z,100
2023-01-23T05:43:01.213Z,100
2023-01-23T06:02:17.551Z,100
2023-01-23T06:21:33.184Z,100
2023-01-23T06:40:47.891Z,100
2023-01-23T07:00:03.134Z,100
2023-01-23T07:19:18.411Z,100
2023-01-23T07:38:33.293Z,100
2023-01-23T07:57:48.010Z,100
2023-01-23T08:17:03.642Z,100
2023-01-23T08:36:17.264Z,100
2023-01-23T08:55:31.773Z,100
2023-01-23T09:14:47.382Z,100
2023-01-23T09:34:03.353Z,94.8
2023-01-23T09:53:18.071Z,92.9
2023-01-23T10:12:32.598Z,94.4
2023-01-23T10:31:48.267Z,92.4
2023-01-23T10:51:02.966Z,89.7
2023-01-23T11:10:19.089Z,90.6
2023-01-23T11:29:33.107Z,91
2023-01-23T11:48:47.986Z,88.7
2023-01-23T12:08:02.623Z,87.4
2023-01-23T12:27:18.183Z,89.4
2023-01-23T12:46:31.330Z,89.4
2023-01-23T13:05:44.503Z,87.6
2023-01-23T13:24:56.194Z,88.9
2023-01-23T13:44:10.796Z,85.6
2023-01-23T14:03:27.384Z,87.2
2023-01-23T14:22:40.567Z,90.8
2023-01-23T14:41:55.689Z,93.4
2023-01-23T15:01:09.000Z,93.7
2023-01-23T15:20:21.780Z,93.1
2023-01-23T15:39:35.504Z,91.9
2023-01-23T15:58:51.415Z,94.9
2023-01-23T16:18:05.469Z,94.5
2023-01-23T16:37:19.433Z,92.2
2023-01-23T16:56:33.893Z,92
2023-01-23T17:15:48.102Z,92.1
2023-01-23T17:35:03.550Z,92.6
2023-01-23T17:54:18.253Z,93.5
2023-01-23T18:13:30.173Z,95.5
2023-01-23T18:32:44.313Z,95.9
2023-01-23T18:51:58.836Z,95.7
2023-01-23T19:11:14.686Z,95.1
2023-01-23T19:30:27.603Z,96.8
2023-01-23T19:49:42.034Z,96.5
2023-01-23T20:08:56.879Z,95.6
2023-01-23T20:28:11.370Z,96.7
2023-01-23T20:47:26.646Z,99.7
2023-01-23T21:06:41.663Z,98.6
2023-01-23T21:25:56.616Z,99.6
2023-01-23T21:45:08.145Z,98.3
2023-01-23T22:04:22.699Z,97.6
2023-01-23T22:23:37.756Z,97.2
2023-01-23T22:42:53.349Z,98.1
2023-01-23T23:02:07.710Z,98.1
2023-01-23T23:21:21.937Z,96.9
2023-01-23T23:40:38.579Z,96.9
2023-01-23T23:59:52.444Z,96.3
